Terminal Aerodrome Forecast
Issued by NWS

Home | Current Version | Previous Version | Text Only | Print | Product List | Glossary On
Versions: 1 2 3 4 5 6 7 8 9 10 11 12 13 14 15 16 17 18 19 20 21 22 23 24 25 26 27 28 29 30
000
FTUS41 KRNK 102021 AAA
TAFLWB
TAF AMD
KLWB 102021Z 1020/1118 30010G18KT 6SM -SHSN OVC035
      TEMPO 1020/1024 3SM -SHSN OVC025
     FM110200 29006KT 6SM -SHSN OVC025
     FM111600 30008KT P6SM BKN035=

USA.gov is the U.S. government's official web portal to all federal, state and local government web resources and services.